Time;durP1;ratioP1;P1;durP2;ratioP2;P2;SDS_P1;SDS_P2;PMS_P1;PMS_P2;Temp;Humidity;BMP_temperature;BMP_pressure;BME280_temperature;BME280_humidity;BME280_pressure;Samples;Min_cycle;Max_cycle;Signal;HPM_P1;HPM_P2
2023/06/17 00:00:25;;;;;;;3.83;3.15;;;24.80;50.60;;;;;;5004880;28;87486;-87
2023/06/17 00:02:51;;;;;;;3.95;3.42;;;24.80;50.50;;;;;;5008199;28;91247;-87
2023/06/17 00:05:17;;;;;;;3.67;3.28;;;24.80;50.30;;;;;;5011042;28;91185;-87
2023/06/17 00:07:43;;;;;;;4.93;3.78;;;24.80;50.40;;;;;;5009582;28;87428;-87
2023/06/17 00:10:10;;;;;;;4.70;3.67;;;24.80;50.60;;;;;;4979188;28;88321;-86
2023/06/17 00:12:36;;;;;;;5.35;4.18;;;24.70;50.70;;;;;;4978995;28;90835;-87
2023/06/17 00:15:04;;;;;;;4.60;3.95;;;24.80;50.50;;;;;;4978179;28;90174;-86
2023/06/17 00:17:30;;;;;;;3.97;3.28;;;24.70;50.40;;;;;;4996655;28;87681;-87
2023/06/17 00:19:58;;;;;;;5.15;3.35;;;24.70;50.50;;;;;;4982263;28;88266;-87
2023/06/17 00:22:29;;;;;;;3.65;3.22;;;24.80;50.30;;;;;;4978256;28;90399;-87
2023/06/17 00:24:56;;;;;;;4.18;3.63;;;24.80;50.40;;;;;;4978126;28;88983;-87
2023/06/17 00:27:21;;;;;;;3.92;3.50;;;24.80;50.30;;;;;;5000550;28;88665;-87
2023/06/17 00:29:47;;;;;;;4.25;3.58;;;24.80;50.50;;;;;;5008758;28;89163;-87
2023/06/17 00:32:13;;;;;;;3.80;3.30;;;24.80;50.50;;;;;;5007569;28;88426;-87
2023/06/17 00:34:38;;;;;;;5.97;4.00;;;24.80;50.70;;;;;;5007210;28;90149;-86
2023/06/17 00:37:04;;;;;;;4.10;3.22;;;24.70;50.50;;;;;;5007830;28;87541;-86
2023/06/17 00:39:30;;;;;;;5.68;3.70;;;24.80;50.60;;;;;;5006906;28;89214;-85
2023/06/17 00:41:57;;;;;;;3.72;3.38;;;24.70;50.70;;;;;;5016725;28;90819;-86
2023/06/17 00:44:22;;;;;;;3.78;3.13;;;24.70;50.70;;;;;;5010093;28;89483;-85
2023/06/17 00:46:51;;;;;;;3.42;3.10;;;24.70;50.70;;;;;;5009257;28;87878;-86
2023/06/17 00:49:17;;;;;;;4.10;3.63;;;24.70;50.80;;;;;;5017193;28;88360;-87
2023/06/17 00:51:44;;;;;;;3.75;3.13;;;24.70;50.80;;;;;;5010998;28;88533;-87
2023/06/17 00:54:12;;;;;;;3.90;3.35;;;24.70;50.60;;;;;;5008911;28;92394;-86
2023/06/17 00:56:39;;;;;;;3.85;3.30;;;24.70;50.90;;;;;;5009080;28;87010;-86
2023/06/17 00:59:05;;;;;;;4.45;3.40;;;24.70;50.80;;;;;;5008325;28;87416;-87
2023/06/17 01:01:35;;;;;;;4.85;3.65;;;24.70;50.90;;;;;;5009601;28;88326;-86
2023/06/17 01:04:02;;;;;;;4.95;3.47;;;24.70;50.80;;;;;;5008283;28;89344;-87
2023/06/17 01:06:42;;;;;;;3.83;3.42;;;24.70;50.80;;;;;;5008426;28;88071;-87
2023/06/17 01:09:15;;;;;;;4.35;3.53;;;24.70;51.00;;;;;;5008838;28;87844;-87
2023/06/17 01:11:42;;;;;;;3.95;3.55;;;24.70;50.90;;;;;;5005406;28;90141;-86
2023/06/17 01:14:10;;;;;;;4.20;3.30;;;24.70;51.00;;;;;;4979604;28;94437;-87
2023/06/17 01:16:42;;;;;;;3.75;3.35;;;24.70;50.90;;;;;;5003448;28;87890;-87
2023/06/17 01:19:20;;;;;;;4.32;3.75;;;24.70;51.00;;;;;;5004723;28;87674;-87
2023/06/17 01:21:51;;;;;;;3.47;3.17;;;24.70;51.10;;;;;;5011873;28;90260;-87
2023/06/17 01:24:36;;;;;;;3.92;3.20;;;24.60;50.90;;;;;;4976320;28;90366;-86
2023/06/17 01:27:02;;;;;;;3.67;3.30;;;24.70;51.10;;;;;;4981332;28;87966;-86
2023/06/17 01:29:29;;;;;;;4.03;3.55;;;24.70;50.90;;;;;;4979867;28;89761;-87
2023/06/17 01:31:57;;;;;;;3.95;3.40;;;24.70;50.90;;;;;;4977163;28;89464;-87
2023/06/17 01:34:48;;;;;;;3.53;3.00;;;24.60;50.90;;;;;;4979811;28;89096;-87
2023/06/17 01:37:23;;;;;;;3.42;3.13;;;24.60;50.90;;;;;;4978647;28;87482;-87
2023/06/17 01:39:50;;;;;;;3.88;3.47;;;24.60;50.90;;;;;;4976451;28;87413;-86
2023/06/17 01:42:21;;;;;;;4.13;3.55;;;24.60;51.00;;;;;;5007854;28;90561;-86
2023/06/17 01:44:48;;;;;;;4.78;3.25;;;24.60;50.90;;;;;;4979633;28;88407;-87
2023/06/17 01:47:14;;;;;;;3.97;3.35;;;24.60;50.90;;;;;;4979191;28;88009;-87
2023/06/17 01:49:40;;;;;;;4.75;3.28;;;24.60;50.90;;;;;;4977409;28;87976;-87
2023/06/17 01:52:07;;;;;;;4.70;3.65;;;24.60;50.90;;;;;;4977092;28;90781;-87
2023/06/17 01:54:33;;;;;;;3.10;2.80;;;24.60;50.80;;;;;;4979771;28;87679;-87
2023/06/17 01:57:00;;;;;;;3.95;3.17;;;24.60;50.60;;;;;;4978799;28;87221;-86
2023/06/17 01:59:26;;;;;;;4.70;3.33;;;24.60;50.80;;;;;;4976227;28;87319;-87
2023/06/17 02:01:52;;;;;;;4.55;3.67;;;24.60;50.60;;;;;;4979551;28;87643;-86
2023/06/17 02:04:18;;;;;;;3.95;3.47;;;24.60;50.60;;;;;;4978290;28;87540;-87
2023/06/17 02:06:43;;;;;;;3.95;3.33;;;24.60;50.60;;;;;;4978629;28;88372;-87
2023/06/17 02:09:09;;;;;;;3.97;3.35;;;24.60;50.70;;;;;;4979894;28;87386;-86
2023/06/17 02:11:34;;;;;;;4.05;3.45;;;24.60;50.70;;;;;;4977349;28;91590;-87
2023/06/17 02:14:00;;;;;;;4.05;3.30;;;24.60;50.80;;;;;;4973800;28;90062;-87
2023/06/17 02:16:26;;;;;;;3.35;3.05;;;24.50;50.90;;;;;;4978089;28;87548;-87
2023/06/17 02:18:53;;;;;;;3.55;3.25;;;24.60;50.90;;;;;;4977419;28;89448;-87
2023/06/17 02:21:19;;;;;;;3.70;3.10;;;24.60;51.00;;;;;;4975457;28;89648;-87
2023/06/17 02:23:48;;;;;;;3.08;2.78;;;24.60;51.10;;;;;;5011675;28;90824;-86
2023/06/17 02:26:17;;;;;;;3.80;3.28;;;24.50;51.10;;;;;;4979585;28;87308;-86
2023/06/17 02:28:43;;;;;;;4.13;3.58;;;24.50;51.10;;;;;;4976758;28;89210;-87
2023/06/17 02:31:09;;;;;;;4.20;3.63;;;24.50;51.10;;;;;;4978219;28;92142;-86
2023/06/17 02:33:36;;;;;;;3.55;3.25;;;24.50;50.80;;;;;;4979776;28;91246;-86
2023/06/17 02:36:01;;;;;;;3.60;3.25;;;24.50;51.00;;;;;;4976624;28;87504;-86
2023/06/17 02:38:28;;;;;;;3.38;3.00;;;24.50;51.00;;;;;;4978928;28;88437;-87
2023/06/17 02:40:54;;;;;;;3.90;3.53;;;24.50;51.10;;;;;;4979653;28;89646;-86
2023/06/17 02:43:20;;;;;;;4.88;3.28;;;24.50;50.90;;;;;;4980935;28;89174;-87
2023/06/17 02:45:46;;;;;;;4.65;3.70;;;24.50;50.90;;;;;;4980688;28;87599;-87
2023/06/17 02:48:11;;;;;;;3.90;3.15;;;24.50;50.90;;;;;;4983694;28;88166;-86
2023/06/17 02:50:37;;;;;;;3.90;3.08;;;24.50;50.70;;;;;;4978759;28;87438;-87
2023/06/17 02:53:04;;;;;;;3.85;2.97;;;24.50;51.10;;;;;;4982993;28;87814;-87
2023/06/17 02:55:30;;;;;;;3.55;3.25;;;24.50;50.80;;;;;;4980372;28;88525;-86
2023/06/17 02:57:56;;;;;;;4.63;3.42;;;24.50;51.10;;;;;;4996140;28;89712;-86
2023/06/17 03:00:21;;;;;;;3.78;3.40;;;24.50;50.90;;;;;;4998530;28;90543;-86
2023/06/17 03:02:48;;;;;;;3.75;3.35;;;24.50;51.20;;;;;;5009850;28;89840;-86
2023/06/17 03:05:14;;;;;;;3.72;3.13;;;24.40;51.10;;;;;;5011801;28;87477;-86
2023/06/17 03:07:40;;;;;;;3.65;3.30;;;24.50;51.10;;;;;;5011983;28;87927;-86
2023/06/17 03:10:07;;;;;;;3.80;3.40;;;24.50;51.10;;;;;;5010300;28;87952;-87
2023/06/17 03:12:32;;;;;;;4.35;3.17;;;24.50;51.00;;;;;;5011879;28;87272;-85
2023/06/17 03:14:58;;;;;;;4.40;3.25;;;24.50;51.00;;;;;;5012124;28;87028;-86
2023/06/17 03:17:24;;;;;;;2.88;2.60;;;24.50;51.20;;;;;;5008978;28;88061;-87
2023/06/17 03:19:51;;;;;;;4.20;3.80;;;24.50;51.20;;;;;;4997918;28;91841;-87
2023/06/17 03:22:16;;;;;;;3.40;3.10;;;24.40;51.40;;;;;;4996961;28;88699;-86
2023/06/17 03:24:42;;;;;;;6.72;3.33;;;24.40;51.40;;;;;;4998110;28;86887;-88
2023/06/17 03:27:08;;;;;;;4.20;3.25;;;24.40;51.30;;;;;;5003253;28;88020;-89
2023/06/17 03:29:35;;;;;;;3.38;2.78;;;24.40;51.30;;;;;;5011893;28;87735;-87
2023/06/17 03:32:01;;;;;;;3.40;3.10;;;24.50;51.20;;;;;;5009871;28;86990;-86
2023/06/17 03:34:26;;;;;;;3.95;3.55;;;24.50;51.20;;;;;;5010440;28;87301;-86
2023/06/17 03:36:52;;;;;;;3.70;3.30;;;24.50;51.20;;;;;;5008508;28;89567;-85
2023/06/17 03:39:18;;;;;;;4.15;3.42;;;24.40;51.20;;;;;;5010019;28;89131;-83
2023/06/17 03:41:44;;;;;;;4.55;3.15;;;24.50;51.30;;;;;;5010811;28;87631;-84
2023/06/17 03:44:10;;;;;;;5.82;3.70;;;24.50;51.70;;;;;;5011524;28;88430;-85
2023/06/17 03:46:36;;;;;;;5.07;3.15;;;24.50;51.70;;;;;;5005771;28;88078;-85
2023/06/17 03:49:02;;;;;;;4.10;3.35;;;24.50;51.70;;;;;;5008691;28;88208;-85
2023/06/17 03:51:28;;;;;;;5.45;3.70;;;24.50;50.80;;;;;;5005929;28;90656;-86
2023/06/17 03:53:53;;;;;;;5.43;4.03;;;24.50;50.40;;;;;;5010167;28;87652;-85
2023/06/17 03:56:19;;;;;;;5.90;4.88;;;24.40;49.90;;;;;;5009393;28;87644;-85
2023/06/17 03:58:45;;;;;;;9.85;4.57;;;24.40;49.40;;;;;;5009214;28;90748;-84
2023/06/17 04:01:12;;;;;;;4.72;4.13;;;24.30;49.10;;;;;;5006294;28;90035;-85
2023/06/17 04:03:40;;;;;;;5.78;3.92;;;24.30;49.20;;;;;;5007360;28;88052;-86
2023/06/17 04:06:06;;;;;;;10.27;4.50;;;24.30;49.70;;;;;;5015328;28;87120;-83
2023/06/17 04:08:32;;;;;;;9.25;4.75;;;24.20;47.50;;;;;;5009668;28;91133;-84
2023/06/17 04:10:59;;;;;;;6.50;4.95;;;24.00;45.70;;;;;;4998442;28;91563;-85
2023/06/17 04:13:25;;;;;;;12.00;4.63;;;23.90;45.20;;;;;;5005071;28;87306;-85
2023/06/17 04:15:50;;;;;;;11.60;5.07;;;23.70;44.50;;;;;;5025717;28;89776;-86
2023/06/17 04:18:16;;;;;;;9.07;5.07;;;23.70;44.40;;;;;;5003498;28;88671;-85
2023/06/17 04:20:44;;;;;;;8.85;4.53;;;23.60;44.30;;;;;;5000819;28;87711;-84
2023/06/17 04:23:10;;;;;;;13.65;5.20;;;23.50;44.10;;;;;;5008866;28;87890;-85
2023/06/17 04:25:36;;;;;;;7.68;5.22;;;23.50;44.20;;;;;;4975180;28;90531;-85
2023/06/17 04:28:03;;;;;;;5.68;4.57;;;23.50;44.00;;;;;;4975553;28;90621;-84
2023/06/17 04:30:30;;;;;;;8.60;5.05;;;23.50;43.90;;;;;;4979606;28;89985;-84
2023/06/17 04:33:00;;;;;;;5.43;4.65;;;23.50;44.00;;;;;;4976820;28;88409;-84
2023/06/17 04:35:26;;;;;;;12.63;5.15;;;23.50;43.90;;;;;;4976577;28;89738;-84
2023/06/17 04:37:56;;;;;;;7.90;4.65;;;23.50;43.80;;;;;;5008127;28;90443;-84
2023/06/17 04:40:25;;;;;;;8.90;4.63;;;23.50;43.80;;;;;;4975676;28;89442;-85
2023/06/17 04:42:51;;;;;;;;;;;23.50;43.90;;;;;;4981230;28;87471;-85
2023/06/17 04:45:17;;;;;;;8.88;4.75;;;23.50;44.20;;;;;;4978078;28;89198;-86
2023/06/17 04:47:46;;;;;;;6.20;4.45;;;23.40;44.20;;;;;;4977627;28;87402;-86
2023/06/17 04:50:15;;;;;;;10.00;5.18;;;23.60;44.10;;;;;;5011687;28;89834;-86
2023/06/17 04:52:42;;;;;;;7.93;5.28;;;23.50;44.20;;;;;;4981803;28;88017;-86
2023/06/17 04:55:11;;;;;;;7.30;4.88;;;23.40;44.50;;;;;;4980447;28;87389;-84
2023/06/17 04:57:37;;;;;;;9.60;4.90;;;23.40;44.60;;;;;;4980173;28;88072;-85
2023/06/17 05:00:05;;;;;;;7.97;4.32;;;23.30;45.00;;;;;;5008560;28;90695;-87
2023/06/17 05:02:31;;;;;;;7.07;4.75;;;23.20;45.20;;;;;;4979653;28;87668;-86
2023/06/17 05:04:56;;;;;;;6.93;5.00;;;23.20;45.60;;;;;;4979396;28;87194;-85
2023/06/17 05:07:22;;;;;;;6.22;5.55;;;23.20;45.60;;;;;;4978621;28;87795;-85
2023/06/17 05:09:48;;;;;;;6.47;5.00;;;23.20;45.30;;;;;;4982073;28;87280;-84
2023/06/17 05:12:14;;;;;;;8.32;4.93;;;23.20;45.50;;;;;;4974835;28;87828;-86
2023/06/17 05:14:39;;;;;;;8.38;5.82;;;23.20;45.70;;;;;;4980470;28;88545;-85
2023/06/17 05:17:05;;;;;;;8.40;5.43;;;23.20;45.70;;;;;;4980993;28;87938;-83
2023/06/17 05:19:31;;;;;;;9.52;5.57;;;23.20;46.00;;;;;;4976657;28;88031;-87
2023/06/17 05:21:56;;;;;;;7.47;5.28;;;23.20;45.40;;;;;;4977884;28;88657;-86
2023/06/17 05:24:22;;;;;;;9.82;6.65;;;23.20;45.30;;;;;;4977230;28;89686;-86
2023/06/17 05:26:48;;;;;;;14.55;6.43;;;23.20;44.90;;;;;;4977793;28;87172;-84
2023/06/17 05:29:13;;;;;;;12.80;6.90;;;23.30;44.90;;;;;;4977535;28;87529;-86
2023/06/17 05:31:39;;;;;;;11.02;6.18;;;23.20;45.30;;;;;;4978767;28;87593;-85
2023/06/17 05:34:04;;;;;;;10.70;6.72;;;23.20;45.30;;;;;;4976640;28;88350;-86
2023/06/17 05:36:30;;;;;;;11.77;6.30;;;23.30;45.60;;;;;;4972388;28;90666;-86
2023/06/17 05:38:55;;;;;;;12.75;7.47;;;23.30;45.70;;;;;;4974685;28;89361;-86
2023/06/17 05:41:21;;;;;;;12.02;6.63;;;23.30;45.80;;;;;;4978515;28;86948;-85
2023/06/17 05:43:48;;;;;;;16.20;6.85;;;23.30;46.00;;;;;;4976005;28;87614;-86
2023/06/17 05:46:14;;;;;;;17.85;6.72;;;23.30;45.60;;;;;;4973359;28;88919;-85
2023/06/17 05:48:40;;;;;;;11.45;6.53;;;23.30;45.60;;;;;;4980726;28;88216;-85
2023/06/17 05:51:05;;;;;;;15.20;6.70;;;23.30;45.90;;;;;;4982222;28;87392;-88
2023/06/17 05:53:31;;;;;;;17.60;6.60;;;23.40;46.40;;;;;;4979447;28;89489;-87
2023/06/17 05:55:56;;;;;;;12.57;6.22;;;23.30;46.90;;;;;;5014204;28;90363;-89
2023/06/17 05:58:22;;;;;;;18.63;7.47;;;23.30;47.10;;;;;;4982913;28;87605;-86
2023/06/17 06:00:48;;;;;;;13.88;6.90;;;23.40;47.30;;;;;;4980431;28;87641;-86
2023/06/17 06:03:13;;;;;;;12.98;6.97;;;23.40;47.40;;;;;;4982999;28;87535;-87
2023/06/17 06:05:39;;;;;;;10.55;6.60;;;23.40;46.90;;;;;;4978664;28;87688;-84
2023/06/17 06:08:05;;;;;;;10.68;6.78;;;23.40;47.20;;;;;;4975513;28;90563;-85
2023/06/17 06:10:30;;;;;;;13.25;6.68;;;23.50;47.40;;;;;;4975070;28;88681;-84
2023/06/17 06:12:56;;;;;;;13.20;6.90;;;23.50;47.40;;;;;;4978289;28;87642;-85
2023/06/17 06:15:23;;;;;;;12.15;6.55;;;23.40;47.00;;;;;;4975561;28;87781;-84
2023/06/17 06:17:49;;;;;;;8.82;6.03;;;23.50;46.70;;;;;;4974131;28;88373;-85
2023/06/17 06:20:14;;;;;;;11.60;6.88;;;23.50;47.20;;;;;;4970030;28;87438;-85
2023/06/17 06:22:40;;;;;;;42.67;10.23;;;23.50;47.30;;;;;;4974671;28;86894;-86
2023/06/17 06:25:06;;;;;;;54.38;12.23;;;23.50;47.10;;;;;;4977610;28;88283;-86
2023/06/17 06:27:31;;;;;;;30.20;10.10;;;23.50;46.80;;;;;;4974229;28;89725;-86
2023/06/17 06:32:32;;;;;;;24.98;9.13;;;23.50;46.70;;;;;;4978222;28;87891;-86
2023/06/17 06:34:58;;;;;;;27.95;9.85;;;23.60;46.40;;;;;;4973975;28;92269;-85
2023/06/17 06:37:23;;;;;;;24.50;8.23;;;23.60;46.10;;;;;;4974920;28;90396;-86
2023/06/17 06:39:49;;;;;;;21.65;8.43;;;23.60;45.90;;;;;;4978180;28;87066;-86
2023/06/17 06:42:15;;;;;;;24.95;7.93;;;23.50;46.00;;;;;;4975552;28;87662;-86
2023/06/17 06:44:40;;;;;;;20.42;7.32;;;23.60;45.70;;;;;;4978191;28;88385;-85
2023/06/17 06:47:06;;;;;;;20.08;7.25;;;23.60;46.10;;;;;;4977593;28;88031;-86
2023/06/17 06:49:33;;;;;;;22.23;7.90;;;23.60;46.80;;;;;;4976510;28;87693;-87
2023/06/17 06:51:58;;;;;;;20.33;6.55;;;23.60;46.40;;;;;;4975502;28;87095;-88
2023/06/17 06:54:24;;;;;;;11.68;6.82;;;23.70;46.40;;;;;;4973646;28;90444;-86
2023/06/17 06:56:50;;;;;;;13.73;6.63;;;23.60;46.20;;;;;;4975734;28;89129;-87
2023/06/17 06:59:16;;;;;;;12.77;6.35;;;23.60;46.60;;;;;;4978944;28;88996;-88
2023/06/17 07:01:41;;;;;;;15.48;6.82;;;23.60;46.50;;;;;;4973551;28;88386;-88
2023/06/17 07:04:07;;;;;;;9.57;6.60;;;23.50;46.20;;;;;;4986074;28;90562;-86
2023/06/17 07:06:32;;;;;;;12.10;6.18;;;23.60;46.80;;;;;;4995618;28;89343;-86
2023/06/17 07:08:58;;;;;;;11.43;6.50;;;23.50;46.80;;;;;;5001825;28;87506;-87
2023/06/17 07:11:24;;;;;;;14.13;5.65;;;23.60;47.10;;;;;;5000903;28;87860;-87
2023/06/17 07:13:50;;;;;;;14.07;6.07;;;23.60;47.00;;;;;;5002279;28;88993;-87
2023/06/17 07:16:15;;;;;;;12.68;6.25;;;23.60;47.20;;;;;;5003695;28;87346;-89
2023/06/17 07:18:41;;;;;;;12.70;5.88;;;23.60;47.30;;;;;;5000554;28;87553;-85
2023/06/17 07:21:07;;;;;;;13.30;5.88;;;23.60;46.90;;;;;;5009890;28;88087;-87
2023/06/17 07:23:32;;;;;;;10.20;5.45;;;23.60;47.00;;;;;;5001102;28;89326;-88
2023/06/17 07:25:58;;;;;;;7.70;5.65;;;23.60;47.10;;;;;;4997944;28;91196;-83
2023/06/17 07:28:24;;;;;;;10.07;5.90;;;23.60;47.20;;;;;;4996425;28;87869;-87
2023/06/17 07:30:50;;;;;;;11.13;5.72;;;23.60;47.60;;;;;;5002760;28;88746;-85
2023/06/17 07:33:16;;;;;;;9.00;5.30;;;23.70;47.60;;;;;;5006530;28;88837;-86
2023/06/17 07:35:42;;;;;;;7.82;5.13;;;23.70;47.20;;;;;;5019484;28;89244;-85
2023/06/17 07:38:08;;;;;;;9.23;5.22;;;23.80;47.30;;;;;;4996258;28;87834;-85
2023/06/17 07:40:35;;;;;;;8.25;5.22;;;23.80;47.00;;;;;;4993812;28;89122;-84
2023/06/17 07:43:01;;;;;;;11.50;5.93;;;23.80;46.90;;;;;;4992842;28;90965;-84
2023/06/17 07:45:27;;;;;;;10.98;5.32;;;23.80;46.90;;;;;;4983416;28;90248;-85
2023/06/17 07:47:52;;;;;;;9.13;5.57;;;23.80;46.90;;;;;;5002334;28;88869;-85
2023/06/17 07:50:18;;;;;;;9.55;5.60;;;23.80;46.90;;;;;;4996708;28;88026;-85
2023/06/17 07:52:44;;;;;;;10.27;5.50;;;23.90;46.90;;;;;;4996144;28;91322;-84
2023/06/17 07:55:10;;;;;;;11.48;5.85;;;23.90;46.80;;;;;;4977896;28;87395;-84
2023/06/17 07:57:36;;;;;;;12.98;5.45;;;23.90;47.00;;;;;;4966527;28;87977;-85
2023/06/17 08:00:09;;;;;;;11.63;6.00;;;23.90;47.10;;;;;;4971979;28;88214;-86
2023/06/17 08:02:35;;;;;;;8.90;5.53;;;23.90;46.80;;;;;;4989696;28;90344;-86
2023/06/17 08:05:01;;;;;;;10.45;5.57;;;23.90;47.20;;;;;;5003362;28;87448;-86
2023/06/17 08:07:27;;;;;;;9.85;5.47;;;24.00;47.30;;;;;;5000479;28;88692;-87
2023/06/17 08:09:53;;;;;;;11.15;5.60;;;23.90;47.40;;;;;;5005254;28;87891;-87
2023/06/17 08:12:18;;;;;;;8.02;5.28;;;23.90;47.30;;;;;;5005458;28;88463;-85
2023/06/17 08:14:44;;;;;;;11.73;5.10;;;24.00;47.40;;;;;;5003918;28;89049;-84
2023/06/17 08:17:10;;;;;;;10.30;5.18;;;24.00;47.40;;;;;;5004790;28;87739;-87
2023/06/17 08:19:35;;;;;;;8.38;4.68;;;24.00;47.30;;;;;;5002825;28;88082;-86
2023/06/17 08:22:01;;;;;;;8.00;4.68;;;24.00;47.30;;;;;;5004941;28;87923;-85
2023/06/17 08:24:26;;;;;;;10.70;5.10;;;24.00;47.40;;;;;;5005177;28;86954;-84
2023/06/17 08:26:53;;;;;;;11.63;5.35;;;24.00;47.80;;;;;;5001514;28;87713;-86
2023/06/17 08:29:20;;;;;;;8.82;5.75;;;24.00;47.40;;;;;;5005144;28;87405;-87
2023/06/17 08:31:51;;;;;;;10.77;5.38;;;24.00;47.60;;;;;;5003995;28;90864;-86
2023/06/17 08:34:17;;;;;;;10.75;5.20;;;24.00;47.30;;;;;;5002591;28;88360;-86
2023/06/17 08:36:46;;;;;;;8.82;5.25;;;24.10;47.60;;;;;;4985197;28;88256;-85
2023/06/17 08:39:12;;;;;;;8.50;5.10;;;24.10;47.20;;;;;;4971837;28;87885;-85
2023/06/17 08:41:40;;;;;;;6.75;4.75;;;24.10;47.10;;;;;;4996577;28;88540;-85
2023/06/17 08:44:07;;;;;;;9.85;5.80;;;24.10;47.10;;;;;;4992962;28;90058;-86
2023/06/17 08:46:33;;;;;;;11.80;5.45;;;24.10;47.10;;;;;;5007381;28;88148;-84
2023/06/17 08:49:00;;;;;;;6.95;4.35;;;24.10;47.30;;;;;;4999130;28;87910;-85
2023/06/17 08:51:27;;;;;;;5.55;4.32;;;24.20;47.40;;;;;;5003317;28;88590;-87
2023/06/17 08:53:54;;;;;;;10.93;5.22;;;24.10;47.50;;;;;;4988207;28;90398;-87
2023/06/17 08:56:20;;;;;;;8.18;5.03;;;24.20;47.50;;;;;;5004009;28;87699;-86
2023/06/17 08:58:45;;;;;;;19.92;5.35;;;24.20;47.30;;;;;;5002141;28;88559;-85
2023/06/17 09:01:12;;;;;;;9.75;4.82;;;24.20;47.40;;;;;;5005275;28;88656;-86
2023/06/17 09:03:41;;;;;;;10.55;4.65;;;24.20;47.30;;;;;;5004063;28;91405;-86
2023/06/17 09:06:28;;;;;;;10.98;6.20;;;24.20;46.90;;;;;;5003139;28;87501;-87
2023/06/17 09:08:55;;;;;;;10.23;5.25;;;24.30;47.00;;;;;;5004958;28;88040;-88
2023/06/17 09:11:23;;;;;;;16.13;5.65;;;24.30;47.00;;;;;;5004020;28;87741;-86
2023/06/17 09:13:53;;;;;;;39.45;10.93;;;24.20;47.10;;;;;;5001368;28;87882;-86
2023/06/17 09:16:36;;;;;;;98.55;24.67;;;24.20;47.20;;;;;;4997416;28;88113;-86
2023/06/17 09:19:08;;;;;;;85.38;24.00;;;24.30;47.50;;;;;;4992722;28;87446;-84
2023/06/17 09:21:36;;;;;;;97.47;26.33;;;24.30;47.40;;;;;;4988968;28;87830;-86
2023/06/17 09:24:05;;;;;;;92.68;25.10;;;24.30;47.60;;;;;;4999830;28;87790;-86
2023/06/17 09:26:39;;;;;;;84.85;24.80;;;24.20;47.60;;;;;;4997268;28;88675;-87
2023/06/17 09:29:06;;;;;;;65.03;19.63;;;24.20;47.60;;;;;;5006516;28;89018;-86
2023/06/17 09:31:33;;;;;;;55.35;16.17;;;24.20;47.70;;;;;;4996510;28;90354;-88
2023/06/17 09:34:03;;;;;;;50.38;16.23;;;24.20;47.70;;;;;;4999674;28;89694;-87
2023/06/17 09:36:29;;;;;;;60.47;17.73;;;24.20;47.90;;;;;;5001787;28;88111;-86
2023/06/17 09:38:55;;;;;;;46.55;16.40;;;24.20;48.00;;;;;;5006379;28;87800;-87
2023/06/17 09:41:23;;;;;;;47.20;14.73;;;24.30;48.10;;;;;;5004809;28;90108;-86
2023/06/17 09:43:53;;;;;;;53.78;14.82;;;24.20;48.00;;;;;;5001254;28;91682;-85
2023/06/17 09:46:35;;;;;;;42.90;14.88;;;24.20;48.00;;;;;;5002026;28;87642;-86
2023/06/17 09:49:06;;;;;;;46.38;14.73;;;24.30;48.00;;;;;;5001853;28;88152;-86
2023/06/17 09:51:36;;;;;;;42.22;13.73;;;24.30;48.00;;;;;;4995430;28;88359;-86
2023/06/17 09:54:04;;;;;;;42.78;14.23;;;24.30;48.10;;;;;;4990571;28;88488;-85
2023/06/17 09:56:31;;;;;;;40.25;13.98;;;24.30;47.90;;;;;;5002702;28;87682;-85
2023/06/17 09:58:57;;;;;;;41.20;13.02;;;24.30;48.20;;;;;;5001190;28;87855;-85
2023/06/17 10:01:30;;;;;;;31.17;13.40;;;24.30;48.60;;;;;;5001171;28;88068;-85
2023/06/17 10:03:59;;;;;;;35.97;13.90;;;24.30;48.60;;;;;;5000387;28;90976;-86
2023/06/17 10:06:29;;;;;;;28.08;11.35;;;24.30;48.90;;;;;;4998456;28;88337;-85
2023/06/17 10:08:56;;;;;;;34.85;12.98;;;24.30;49.60;;;;;;4999573;28;88610;-85
2023/06/17 10:11:23;;;;;;;30.65;12.75;;;24.30;49.70;;;;;;5000573;28;89516;-85
2023/06/17 10:14:13;;;;;;;28.92;12.07;;;24.30;49.80;;;;;;4998369;28;90548;-84
2023/06/17 10:16:44;;;;;;;28.15;11.35;;;24.30;50.70;;;;;;5000465;28;88768;-85
2023/06/17 10:19:13;;;;;;;35.83;12.90;;;24.30;50.10;;;;;;4999590;28;87748;-85
2023/06/17 10:21:46;;;;;;;32.55;11.27;;;24.40;50.50;;;;;;4994121;28;91214;-86
2023/06/17 10:24:13;;;;;;;26.13;11.48;;;24.30;50.50;;;;;;4984177;28;90605;-85
2023/06/17 10:26:39;;;;;;;33.13;12.77;;;24.40;50.90;;;;;;4966079;28;87829;-87
2023/06/17 10:29:10;;;;;;;38.20;12.55;;;24.30;50.80;;;;;;4986615;28;88146;-88
2023/06/17 10:31:40;;;;;;;30.00;11.25;;;24.30;50.80;;;;;;5000024;28;88599;-86
2023/06/17 10:34:10;;;;;;;24.38;10.98;;;24.40;50.40;;;;;;4998518;28;90633;-85
2023/06/17 10:36:36;;;;;;;29.23;11.75;;;24.40;50.30;;;;;;5006096;28;87403;-87
2023/06/17 10:39:10;;;;;;;31.65;11.93;;;24.40;50.10;;;;;;4999116;28;88480;-87
2023/06/17 10:41:38;;;;;;;31.67;10.90;;;24.40;50.20;;;;;;5007297;28;91779;-88
2023/06/17 10:44:35;;;;;;;26.30;11.38;;;24.40;50.50;;;;;;4999145;28;90601;-85
2023/06/17 10:47:02;;;;;;;32.60;11.25;;;24.50;50.50;;;;;;5000517;28;87448;-87
2023/06/17 10:49:39;;;;;;;30.52;10.38;;;24.40;50.40;;;;;;4996484;28;87704;-85
2023/06/17 10:52:11;;;;;;;23.42;10.10;;;24.40;51.20;;;;;;4999537;28;88896;-87
2023/06/17 10:54:53;;;;;;;25.23;9.57;;;24.40;50.20;;;;;;5000388;28;87951;-87
2023/06/17 10:57:30;;;;;;;22.52;9.90;;;24.40;50.20;;;;;;4992042;28;87155;-86
2023/06/17 10:59:59;;;;;;;21.90;9.23;;;24.50;50.20;;;;;;4994751;28;87392;-85
2023/06/17 11:02:25;;;;;;;26.55;11.02;;;24.40;49.90;;;;;;4996460;28;90570;-85
2023/06/17 11:04:51;;;;;;;22.15;10.15;;;24.40;49.80;;;;;;5005555;28;90816;-84
2023/06/17 11:07:26;;;;;;;27.25;9.70;;;24.50;49.90;;;;;;5002195;28;91005;-88
2023/06/17 11:09:51;;;;;;;22.08;9.65;;;24.50;49.70;;;;;;5004263;28;88484;-86
2023/06/17 11:12:17;;;;;;;24.25;10.70;;;24.50;49.60;;;;;;5004216;28;90696;-87
2023/06/17 11:14:43;;;;;;;21.95;9.18;;;24.50;49.60;;;;;;5004736;28;87585;-84
2023/06/17 11:17:09;;;;;;;20.80;8.80;;;24.60;49.40;;;;;;5006324;28;87473;-85
2023/06/17 11:19:34;;;;;;;21.20;9.63;;;24.60;49.30;;;;;;5004037;28;88196;-85
2023/06/17 11:22:03;;;;;;;27.95;9.90;;;24.60;49.40;;;;;;5003455;28;90822;-86
2023/06/17 11:24:30;;;;;;;20.50;9.43;;;24.60;49.50;;;;;;5004270;28;90260;-86
2023/06/17 11:26:57;;;;;;;22.42;8.77;;;24.50;49.70;;;;;;5004886;28;87698;-88
2023/06/17 11:29:26;;;;;;;24.98;8.32;;;24.60;49.80;;;;;;5008893;28;87791;-85
2023/06/17 11:31:53;;;;;;;;;;;24.60;50.80;;;;;;5005401;28;91669;-86
2023/06/17 11:34:19;;;;;;;14.50;7.63;;;24.60;49.90;;;;;;5007985;28;87324;-90
2023/06/17 11:36:53;;;;;;;16.90;7.88;;;24.70;50.20;;;;;;5001953;28;87202;-84
2023/06/17 11:39:28;;;;;;;19.92;8.15;;;24.70;50.20;;;;;;4995910;28;89375;-88
2023/06/17 11:42:00;;;;;;;17.10;7.72;;;24.70;50.20;;;;;;4998944;28;88209;-86
2023/06/17 11:44:27;;;;;;;15.48;8.45;;;24.70;50.00;;;;;;5002260;28;89484;-86
2023/06/17 11:46:56;;;;;;;16.67;7.25;;;24.70;49.70;;;;;;4989541;28;87804;-87
2023/06/17 11:49:28;;;;;;;15.88;7.95;;;24.70;49.70;;;;;;4989829;28;87197;-87
2023/06/17 11:51:53;;;;;;;13.82;7.68;;;24.80;49.80;;;;;;4995103;28;88268;-86
2023/06/17 11:54:22;;;;;;;15.60;7.82;;;24.70;49.70;;;;;;4997666;28;89182;-86
2023/06/17 11:56:49;;;;;;;13.98;8.30;;;24.70;49.70;;;;;;4994992;28;89121;-87
2023/06/17 11:59:18;;;;;;;15.85;8.38;;;24.70;49.80;;;;;;4992543;28;87489;-86
2023/06/17 12:01:44;;;;;;;17.70;7.90;;;24.70;49.90;;;;;;4998238;28;89392;-85
2023/06/17 12:04:09;;;;;;;15.68;7.95;;;24.70;50.30;;;;;;5001423;28;90204;-85
2023/06/17 12:06:36;;;;;;;16.10;7.70;;;24.80;51.40;;;;;;4999183;28;87477;-85
2023/06/17 12:09:03;;;;;;;16.50;8.18;;;24.80;50.70;;;;;;4999817;28;89320;-85
2023/06/17 12:11:35;;;;;;;14.07;7.53;;;24.80;51.20;;;;;;5004589;28;87501;-85
2023/06/17 12:14:06;;;;;;;14.57;7.82;;;25.00;51.20;;;;;;4993007;28;90375;-86
2023/06/17 12:16:34;;;;;;;13.95;7.85;;;25.10;50.90;;;;;;5000854;28;88038;-85
2023/06/17 12:19:01;;;;;;;13.07;7.40;;;25.20;50.60;;;;;;5004479;28;88055;-87
2023/06/17 12:21:27;;;;;;;13.25;6.72;;;25.20;50.40;;;;;;4986254;28;88574;-85
2023/06/17 12:23:54;;;;;;;13.73;7.47;;;25.20;50.00;;;;;;5003563;28;88477;-85
2023/06/17 12:26:26;;;;;;;14.52;7.57;;;25.30;49.80;;;;;;4998058;28;87125;-85
2023/06/17 12:28:52;;;;;;;12.75;6.95;;;25.30;49.50;;;;;;4983253;28;89903;-86
2023/06/17 12:31:19;;;;;;;13.73;7.20;;;25.30;49.30;;;;;;4981780;28;88325;-86
2023/06/17 12:33:48;;;;;;;12.30;6.68;;;25.30;49.30;;;;;;4989281;28;90808;-85
2023/06/17 12:36:14;;;;;;;12.20;6.78;;;25.40;49.10;;;;;;4991722;28;87226;-86
2023/06/17 12:38:40;;;;;;;12.88;6.88;;;25.40;49.00;;;;;;4988355;28;89431;-86
2023/06/17 12:41:06;;;;;;;12.02;6.97;;;25.40;49.00;;;;;;4991205;28;88616;-86
2023/06/17 12:43:32;;;;;;;11.13;6.63;;;25.40;48.70;;;;;;4998756;28;90626;-86